Time;durP1;ratioP1;P1;durP2;ratioP2;P2;SDS_P1;SDS_P2;PMS_P1;PMS_P2;Temp;Humidity;BMP_temperature;BMP_pressure;BME280_temperature;BME280_humidity;BME280_pressure;Samples;Min_cycle;Max_cycle;Signal;HPM_P1;HPM_P2
2021/01/07 00:00:30;;;;;;;13.57;7.55;;;;;;;1.00;99.32;100224.63;4986552;28;20392;-89
2021/01/07 00:02:57;;;;;;;12.13;7.75;;;;;;;1.22;97.65;100230.09;4989321;28;20062;-88
2021/01/07 00:05:23;;;;;;;10.85;7.55;;;;;;;1.18;97.01;100223.13;4974524;28;20073;-87
2021/01/07 00:07:50;;;;;;;11.07;7.78;;;;;;;1.16;97.91;100219.69;4985176;28;20053;-87
2021/01/07 00:10:16;;;;;;;11.38;7.63;;;;;;;1.12;98.11;100220.28;4976760;28;20416;-88
2021/01/07 00:12:43;;;;;;;11.82;8.07;;;;;;;1.14;97.72;100213.66;4991023;28;20050;-87
2021/01/07 00:15:10;;;;;;;11.38;7.65;;;;;;;0.96;98.28;100222.72;4969296;28;20058;-86
2021/01/07 00:17:37;;;;;;;11.27;7.50;;;;;;;1.12;98.16;100216.91;4979301;28;20062;-87
2021/01/07 00:20:07;;;;;;;10.05;7.20;;;;;;;1.04;97.79;100215.59;4992673;28;20053;-87
2021/01/07 00:22:34;;;;;;;11.30;7.25;;;;;;;0.81;97.92;100216.81;4973555;28;20459;-88
2021/01/07 00:25:00;;;;;;;9.75;6.43;;;;;;;0.96;99.64;100216.03;4977861;28;20133;-88
2021/01/07 00:27:27;;;;;;;12.75;7.70;;;;;;;1.09;98.12;100216.72;4977791;28;20042;-89
2021/01/07 00:29:53;;;;;;;10.25;7.50;;;;;;;1.18;98.07;100214.69;4974262;28;20050;-89
2021/01/07 00:32:20;;;;;;;10.05;7.25;;;;;;;1.12;97.00;100210.19;4985322;28;20080;-88
2021/01/07 00:34:46;;;;;;;10.65;7.30;;;;;;;1.06;97.77;100221.56;4972090;28;20097;-88
2021/01/07 00:37:13;;;;;;;10.35;7.28;;;;;;;0.91;98.09;100214.03;4994786;28;20066;-88
2021/01/07 00:39:40;;;;;;;8.63;6.07;;;;;;;0.97;97.67;100221.94;4975786;28;20055;-88
2021/01/07 00:42:07;;;;;;;9.90;6.85;;;;;;;0.73;98.59;100223.94;4976357;28;20054;-88
2021/01/07 00:44:33;;;;;;;8.82;6.53;;;;;;;0.85;99.12;100223.78;4987361;28;20050;-89
2021/01/07 00:47:00;;;;;;;7.43;5.97;;;;;;;1.00;97.22;100228.00;4968803;28;20051;-88
2021/01/07 00:49:26;;;;;;;10.45;7.38;;;;;;;1.11;97.25;100223.59;4974548;28;20057;-87
2021/01/07 00:51:53;;;;;;;10.32;7.10;;;;;;;1.05;97.46;100217.31;4982658;28;20443;-88
2021/01/07 00:54:22;;;;;;;10.23;7.15;;;;;;;0.94;98.08;100220.13;4967466;28;20043;-88
2021/01/07 00:56:51;;;;;;;9.55;6.82;;;;;;;0.89;98.11;100225.69;4966599;28;20053;-87
2021/01/07 00:59:17;;;;;;;9.15;6.88;;;;;;;0.97;98.71;100225.34;4978390;28;20050;-89
2021/01/07 01:01:48;;;;;;;9.00;6.30;;;;;;;0.96;98.14;100225.25;4985283;28;20137;-87
2021/01/07 01:04:16;;;;;;;10.20;7.10;;;;;;;1.12;97.44;100226.97;4981958;28;20453;-89
2021/01/07 01:06:43;;;;;;;9.05;6.82;;;;;;;0.82;97.45;100226.97;4990898;28;20039;-89
2021/01/07 01:09:12;;;;;;;9.35;7.20;;;;;;;1.02;97.28;100231.50;4976329;28;20046;-88
2021/01/07 01:11:46;;;;;;;9.32;6.72;;;;;;;0.77;98.47;100236.78;4968441;28;20046;-87
2021/01/07 01:14:19;;;;;;;9.45;6.70;;;;;;;0.97;97.73;100230.38;4993271;28;20124;-88
2021/01/07 01:16:50;;;;;;;9.32;6.82;;;;;;;1.12;97.35;100226.97;4985098;28;20793;-88
2021/01/07 01:19:18;;;;;;;9.55;6.82;;;;;;;0.86;98.47;100231.41;4973204;28;20129;-88
2021/01/07 01:21:50;;;;;;;10.43;7.15;;;;;;;0.69;98.46;100224.53;4973466;28;20570;-88
2021/01/07 01:24:18;;;;;;;9.93;7.20;;;;;;;0.69;99.22;100232.09;4980573;28;20057;-88
2021/01/07 01:26:44;;;;;;;11.02;7.40;;;;;;;0.83;98.49;100230.38;4973205;28;20080;-87
2021/01/07 01:29:11;;;;;;;8.75;7.63;;;;;;;0.92;98.79;100229.22;4991617;28;20454;-88
2021/01/07 01:31:39;;;;;;;8.18;6.55;;;;;;;1.22;97.60;100229.22;4982857;28;20571;-89
2021/01/07 01:34:08;;;;;;;10.40;7.50;;;;;;;1.07;96.83;100230.91;4969016;28;20146;-86
2021/01/07 01:36:35;;;;;;;9.43;7.15;;;;;;;0.90;96.86;100235.84;4985207;28;20051;-87
2021/01/07 01:39:02;;;;;;;8.90;6.43;;;;;;;1.17;97.46;100221.41;4988282;28;20522;-88
2021/01/07 01:41:28;;;;;;;9.07;6.32;;;;;;;1.08;97.05;100230.13;4968439;28;20050;-88
2021/01/07 01:43:55;;;;;;;8.00;6.28;;;;;;;0.89;97.42;100233.25;4971838;28;20101;-86
2021/01/07 01:46:22;;;;;;;8.50;6.40;;;;;;;1.05;96.89;100229.94;4970513;28;20046;-87
2021/01/07 01:48:49;;;;;;;10.25;7.05;;;;;;;0.90;97.11;100229.94;4972703;28;20146;-87
2021/01/07 01:51:17;;;;;;;9.05;6.80;;;;;;;0.96;97.53;100225.25;4971425;28;20047;-87
2021/01/07 01:53:43;;;;;;;8.80;6.25;;;;;;;0.98;96.59;100232.13;4989528;28;20094;-86
2021/01/07 01:56:11;;;;;;;10.25;6.40;;;;;;;1.00;96.00;100230.53;4974633;28;20165;-88
2021/01/07 01:58:40;;;;;;;8.00;6.03;;;;;;;0.67;98.32;100236.19;4996111;28;20450;-88
2021/01/07 02:01:07;;;;;;;8.45;6.45;;;;;;;0.95;97.47;100231.94;4974337;28;20562;-88
2021/01/07 02:03:39;;;;;;;7.78;6.05;;;;;;;1.07;95.93;100231.78;4965886;28;20516;-89
2021/01/07 02:06:12;;;;;;;8.63;6.55;;;;;;;1.06;96.58;100227.47;4991876;28;20753;-88
2021/01/07 02:08:43;;;;;;;8.43;6.20;;;;;;;0.94;96.48;100224.28;4960338;28;20050;-87
2021/01/07 02:11:11;;;;;;;8.25;6.28;;;;;;;0.97;96.20;100237.94;4988995;28;21105;-87
2021/01/07 02:13:45;;;;;;;9.63;7.07;;;;;;;0.91;96.88;100231.66;4975077;28;20062;-87
2021/01/07 02:16:22;;;;;;;10.25;6.63;;;;;;;0.91;97.16;100234.19;4985336;28;20066;-86
2021/01/07 02:18:52;;;;;;;9.63;7.03;;;;;;;0.92;96.98;100236.78;4999371;28;20085;-87
2021/01/07 02:21:19;;;;;;;10.90;6.80;;;;;;;0.98;96.88;100236.28;4977664;28;20089;-87
2021/01/07 02:23:54;;;;;;;9.75;6.38;;;;;;;1.04;96.15;100229.06;4969403;28;20051;-86
2021/01/07 02:26:22;;;;;;;8.70;6.05;;;;;;;0.91;96.95;100235.06;4968494;28;20058;-87
2021/01/07 02:28:50;;;;;;;9.52;6.05;;;;;;;0.96;96.09;100223.59;4977334;28;20485;-89
2021/01/07 02:31:17;;;;;;;10.80;6.72;;;;;;;0.82;96.35;100224.47;4975354;28;20062;-87
2021/01/07 02:33:44;;;;;;;10.57;6.78;;;;;;;0.99;96.58;100225.41;4975811;28;20537;-89
2021/01/07 02:36:12;;;;;;;9.45;6.68;;;;;;;0.76;96.99;100219.94;4979279;28;20054;-89
2021/01/07 02:38:39;;;;;;;10.02;6.57;;;;;;;1.05;95.96;100222.38;4993831;28;20057;-87
2021/01/07 02:41:07;;;;;;;9.90;6.72;;;;;;;1.12;95.98;100210.19;4976853;28;20117;-90
2021/01/07 02:43:37;;;;;;;10.27;6.68;;;;;;;1.05;95.94;100222.38;4970187;28;20141;-90
2021/01/07 02:46:05;;;;;;;10.75;6.60;;;;;;;0.87;96.09;100214.63;4983261;28;20488;-90
2021/01/07 02:48:32;;;;;;;9.85;7.03;;;;;;;1.09;96.28;100219.22;4978792;28;20057;-87
2021/01/07 02:50:59;;;;;;;10.02;6.78;;;;;;;1.16;95.33;100213.75;4979066;28;20133;-87
2021/01/07 02:53:26;;;;;;;11.05;6.55;;;;;;;1.01;95.12;100221.31;4992506;28;20112;-87
2021/01/07 02:55:53;;;;;;;11.40;6.85;;;;;;;0.99;96.52;100217.84;4977382;28;20054;-87
2021/01/07 02:58:36;;;;;;;11.23;6.80;;;;;;;1.04;96.00;100221.50;4992835;28;20066;-87
2021/01/07 03:01:02;;;;;;;9.90;6.75;;;;;;;0.85;96.15;100214.56;4978535;28;20089;-88
2021/01/07 03:03:29;;;;;;;11.43;6.82;;;;;;;1.01;95.82;100209.59;4973785;28;20879;-87
2021/01/07 03:05:56;;;;;;;11.25;7.00;;;;;;;1.00;95.74;100207.84;4975035;28;20067;-88
2021/01/07 03:08:23;;;;;;;10.88;7.05;;;;;;;1.09;95.94;100199.06;4973051;28;20054;-88
2021/01/07 03:10:50;;;;;;;11.43;7.28;;;;;;;0.88;95.51;100204.66;4976425;28;20122;-88
2021/01/07 03:13:17;;;;;;;12.02;6.82;;;;;;;0.96;95.77;100202.56;4989785;28;20676;-88
2021/01/07 03:15:44;;;;;;;13.93;8.23;;;;;;;0.97;95.74;100204.28;4975553;28;20133;-88
2021/01/07 03:18:11;;;;;;;10.57;6.72;;;;;;;1.04;95.18;100205.50;4978249;28;20164;-88
2021/01/07 03:20:38;;;;;;;11.80;7.72;;;;;;;1.08;95.42;100202.38;4980478;28;20097;-89
2021/01/07 03:23:16;;;;;;;13.35;8.15;;;;;;;1.04;95.75;100206.38;4992921;28;20127;-89
2021/01/07 03:25:43;;;;;;;11.63;7.55;;;;;;;1.14;95.51;100200.19;4993604;28;20494;-88
2021/01/07 03:28:10;;;;;;;15.52;8.98;;;;;;;0.99;96.17;100197.69;4976205;28;20077;-89
2021/01/07 03:30:36;;;;;;;15.93;9.50;;;;;;;1.12;95.33;100207.69;4969540;28;20101;-89
2021/01/07 03:33:06;;;;;;;13.95;8.95;;;;;;;1.03;95.79;100204.66;4988339;28;20042;-89
2021/01/07 03:35:33;;;;;;;17.00;9.98;;;;;;;0.97;96.23;100206.81;4993238;28;20116;-86
2021/01/07 03:37:59;;;;;;;19.50;10.82;;;;;;;0.78;97.62;100204.91;4974923;28;20054;-87
2021/01/07 03:40:27;;;;;;;15.98;9.30;;;;;;;0.84;96.62;100206.94;4973474;28;20138;-86
2021/01/07 03:42:54;;;;;;;17.60;10.30;;;;;;;0.92;96.25;100209.06;4965728;28;20133;-87
2021/01/07 03:45:21;;;;;;;19.63;11.10;;;;;;;0.99;96.08;100211.16;4972826;28;20130;-87
2021/01/07 03:47:47;;;;;;;15.32;9.85;;;;;;;0.66;97.23;100206.75;4975201;28;20506;-88
2021/01/07 03:50:14;;;;;;;15.93;9.75;;;;;;;0.88;96.58;100206.28;4980430;28;20154;-88
2021/01/07 03:52:41;;;;;;;17.98;10.75;;;;;;;0.96;96.35;100215.16;4977568;28;20050;-89
2021/01/07 03:55:08;;;;;;;17.75;10.38;;;;;;;0.87;96.96;100197.00;4973990;28;20070;-87
2021/01/07 03:57:35;;;;;;;17.83;9.50;;;;;;;0.49;97.39;100206.63;4975007;28;20133;-89
2021/01/07 04:00:04;;;;;;;18.25;10.00;;;;;;;0.95;96.71;100200.81;4975708;28;20082;-88
2021/01/07 04:02:31;;;;;;;17.45;10.18;;;;;;;0.94;96.74;100194.91;4968823;28;20050;-87
2021/01/07 04:04:58;;;;;;;16.95;9.30;;;;;;;1.00;95.77;100194.38;4974164;28;20074;-88
2021/01/07 04:07:25;;;;;;;15.82;9.13;;;;;;;0.82;96.07;100194.22;4974000;28;20150;-88
2021/01/07 04:09:51;;;;;;;16.85;9.95;;;;;;;0.69;96.34;100191.78;4973433;28;20054;-88
2021/01/07 04:12:18;;;;;;;19.17;9.90;;;;;;;0.87;96.40;100192.81;4973669;28;20133;-88
2021/01/07 04:15:04;;;;;;;17.38;9.95;;;;;;;0.99;95.53;100180.91;4968762;28;20058;-88
2021/01/07 04:17:31;;;;;;;15.48;9.30;;;;;;;0.94;96.02;100182.31;4965905;28;20070;-88
2021/01/07 04:19:58;;;;;;;17.98;9.13;;;;;;;0.99;95.02;100180.91;4969278;28;20050;-87
2021/01/07 04:22:25;;;;;;;16.90;9.10;;;;;;;0.89;95.45;100177.81;4985984;28;20109;-88
2021/01/07 04:24:52;;;;;;;15.80;9.25;;;;;;;0.90;95.17;100185.44;4968177;28;20106;-87
2021/01/07 04:27:19;;;;;;;15.27;8.80;;;;;;;0.73;95.15;100181.97;4971560;28;20118;-88
2021/01/07 04:29:45;;;;;;;15.30;9.35;;;;;;;0.77;95.49;100186.41;4991631;28;20174;-88
2021/01/07 04:32:12;;;;;;;14.57;8.60;;;;;;;0.83;94.71;100185.00;4972403;28;20073;-88
2021/01/07 04:34:39;;;;;;;15.13;8.93;;;;;;;0.91;94.81;100186.31;4989583;28;20053;-88
2021/01/07 04:37:06;;;;;;;16.52;9.27;;;;;;;0.82;95.34;100191.69;4969325;28;20122;-87
2021/01/07 04:39:33;;;;;;;15.73;9.38;;;;;;;0.88;94.60;100179.47;4977354;28;20202;-87
2021/01/07 04:41:59;;;;;;;14.25;8.57;;;;;;;0.80;95.33;100179.81;4988510;28;20060;-87
2021/01/07 04:44:28;;;;;;;16.85;9.32;;;;;;;0.83;95.82;100183.34;4988734;28;20073;-87
2021/01/07 04:46:55;;;;;;;15.25;8.93;;;;;;;0.87;95.63;100179.34;4973711;28;20137;-85
2021/01/07 04:49:22;;;;;;;16.50;8.90;;;;;;;0.77;95.59;100188.91;4987958;28;20106;-87
2021/01/07 04:51:49;;;;;;;15.52;9.30;;;;;;;0.86;95.29;100185.19;4977210;28;20054;-87
2021/01/07 04:54:19;;;;;;;14.95;9.25;;;;;;;0.82;94.95;100193.34;4969806;28;20058;-86
2021/01/07 04:56:49;;;;;;;17.30;9.65;;;;;;;0.81;95.43;100177.38;4971293;28;20054;-87
2021/01/07 04:59:19;;;;;;;16.00;9.68;;;;;;;0.98;94.31;100178.31;4997107;28;20046;-86
2021/01/07 05:01:47;;;;;;;13.95;8.57;;;;;;;0.85;94.80;100184.31;4986604;28;20052;-88
2021/01/07 05:04:17;;;;;;;13.80;8.52;;;;;;;1.02;94.28;100181.09;4999141;28;20030;-86
2021/01/07 05:06:47;;;;;;;13.07;8.98;;;;;;;0.72;95.13;100185.28;4994461;28;20120;-86
2021/01/07 05:09:14;;;;;;;14.68;9.00;;;;;;;0.87;95.42;100180.22;4986999;28;20057;-87
2021/01/07 05:11:42;;;;;;;15.30;8.90;;;;;;;0.89;93.86;100176.16;4969083;28;20400;-86
2021/01/07 05:14:10;;;;;;;13.23;8.27;;;;;;;1.03;93.56;100179.44;4974164;28;20093;-87
2021/01/07 05:16:37;;;;;;;14.85;8.32;;;;;;;0.79;94.99;100188.13;4978534;28;20046;-87
2021/01/07 05:19:06;;;;;;;14.75;9.35;;;;;;;1.01;93.70;100183.50;4975416;28;20050;-87
2021/01/07 05:21:34;;;;;;;15.57;9.27;;;;;;;0.82;96.26;100194.22;4971455;28;20052;-86
2021/01/07 05:24:03;;;;;;;13.43;8.70;;;;;;;0.92;94.63;100191.41;4985993;28;20499;-87
2021/01/07 05:26:30;;;;;;;13.80;8.48;;;;;;;1.02;94.48;100185.28;4975078;28;20066;-87
2021/01/07 05:28:59;;;;;;;14.35;8.63;;;;;;;0.86;93.95;100191.09;4966495;28;20506;-90
2021/01/07 05:31:29;;;;;;;13.32;8.23;;;;;;;1.06;94.22;100192.19;4953786;28;20039;-89
2021/01/07 05:33:59;;;;;;;12.80;7.72;;;;;;;1.08;94.45;100192.28;4979716;28;20462;-88
2021/01/07 05:36:31;;;;;;;13.80;8.75;;;;;;;0.79;94.82;100198.22;4974853;28;20043;-87
2021/01/07 05:39:05;;;;;;;14.05;8.30;;;;;;;1.06;93.78;100201.41;4974629;28;20121;-88
2021/01/07 05:41:35;;;;;;;13.95;8.57;;;;;;;0.92;94.09;100200.63;4971251;28;20129;-88
2021/01/07 05:44:10;;;;;;;14.82;9.02;;;;;;;0.75;94.31;100198.06;4973528;28;20051;-87
2021/01/07 05:46:44;;;;;;;12.90;8.13;;;;;;;1.12;93.96;100199.25;4960214;28;20492;-90
2021/01/07 05:49:10;;;;;;;12.82;8.00;;;;;;;1.05;93.87;100195.50;4975721;28;20058;-88
2021/01/07 05:51:41;;;;;;;14.63;9.00;;;;;;;0.77;94.46;100204.03;4976289;28;20142;-87
2021/01/07 05:54:11;;;;;;;15.07;8.32;;;;;;;0.87;94.32;100207.06;4974732;28;20074;-87
2021/01/07 05:56:44;;;;;;;14.60;8.30;;;;;;;1.07;94.42;100193.94;4972498;28;20137;-87
2021/01/07 05:59:12;;;;;;;13.27;8.10;;;;;;;1.02;93.78;100205.44;4974497;28;20050;-87
2021/01/07 06:01:41;;;;;;;15.45;8.77;;;;;;;1.07;93.57;100209.09;4993928;28;20134;-86
2021/01/07 06:04:10;;;;;;;14.32;8.75;;;;;;;1.05;94.12;100213.16;4965007;28;20122;-86
2021/01/07 06:06:39;;;;;;;12.45;8.30;;;;;;;0.89;94.76;100208.03;4986446;28;20503;-86
2021/01/07 06:09:07;;;;;;;16.05;9.48;;;;;;;0.84;94.08;100201.88;4991657;28;20065;-87
2021/01/07 06:11:35;;;;;;;11.60;7.53;;;;;;;0.88;93.52;100201.25;4968974;28;20476;-86
2021/01/07 06:14:02;;;;;;;14.50;9.35;;;;;;;0.96;93.55;100208.47;4980323;28;20149;-86
2021/01/07 06:16:29;;;;;;;14.70;9.40;;;;;;;1.02;94.12;100213.00;4987615;28;20055;-85
2021/01/07 06:19:32;;;;;;;13.63;8.57;;;;;;;0.92;95.36;100206.53;4992187;28;20059;-85
2021/01/07 06:22:00;;;;;;;13.73;9.75;;;;;;;0.70;94.83;100213.69;4968597;28;20061;-87
2021/01/07 06:24:30;;;;;;;13.43;8.50;;;;;;;0.98;93.26;100211.09;4969309;28;20774;-85
2021/01/07 06:27:20;;;;;;;14.77;9.55;;;;;;;0.71;95.10;100216.28;4976511;28;20053;-86
2021/01/07 06:29:47;;;;;;;14.55;9.00;;;;;;;0.94;94.11;100202.47;4973136;28;20613;-86
2021/01/07 06:32:18;;;;;;;14.30;8.52;;;;;;;0.69;95.22;100212.84;4993835;28;20046;-87
2021/01/07 06:34:46;;;;;;;14.65;8.55;;;;;;;0.88;94.79;100217.25;4987518;28;20070;-87
2021/01/07 06:37:12;;;;;;;13.80;8.73;;;;;;;0.91;94.12;100207.34;4989016;28;20050;-87
2021/01/07 06:39:43;;;;;;;14.95;8.48;;;;;;;1.00;94.42;100212.03;4967976;28;20069;-87
2021/01/07 06:42:18;;;;;;;16.60;8.85;;;;;;;1.03;94.37;100214.72;4968951;28;20133;-88
2021/01/07 06:45:18;;;;;;;12.93;8.35;;;;;;;0.90;94.91;100210.66;4976053;28;20057;-90
2021/01/07 06:48:12;;;;;;;13.07;8.13;;;;;;;0.94;94.39;100214.22;4974761;28;20112;-89
2021/01/07 06:50:44;;;;;;;12.48;8.30;;;;;;;1.04;94.12;100216.47;4942114;28;20054;-88
2021/01/07 06:53:11;;;;;;;15.45;9.15;;;;;;;0.96;94.49;100210.97;4967453;28;20483;-90
2021/01/07 06:55:41;;;;;;;14.18;7.93;;;;;;;1.04;93.86;100213.94;4976899;28;20078;-89
2021/01/07 06:58:08;;;;;;;15.05;9.43;;;;;;;0.85;93.77;100223.78;4973748;28;20055;-88
2021/01/07 07:00:43;;;;;;;14.38;8.70;;;;;;;1.06;93.93;100216.53;4969269;28;20077;-86
2021/01/07 07:03:10;;;;;;;14.27;8.13;;;;;;;1.08;93.29;100223.41;4972490;28;21104;-86
2021/01/07 07:05:40;;;;;;;14.20;8.82;;;;;;;1.15;94.35;100220.44;4986748;28;20504;-87
2021/01/07 07:08:11;;;;;;;11.90;7.88;;;;;;;1.17;93.66;100220.53;4968790;28;20438;-85
2021/01/07 07:10:38;;;;;;;11.00;7.40;;;;;;;1.06;92.90;100227.47;4972674;28;20098;-86
2021/01/07 07:13:19;;;;;;;12.07;8.05;;;;;;;1.07;93.57;100228.38;4979224;28;20145;-88
2021/01/07 07:15:48;;;;;;;13.70;8.25;;;;;;;0.76;94.39;100227.50;4966016;28;20104;-86
2021/01/07 07:18:47;;;;;;;12.45;8.43;;;;;;;0.81;94.34;100230.28;4990934;28;20074;-86
2021/01/07 07:21:24;;;;;;;11.07;7.93;;;;;;;0.92;93.68;100235.94;4975755;28;20499;-87
2021/01/07 07:23:56;;;;;;;13.80;8.23;;;;;;;1.00;94.25;100233.06;4969907;28;20114;-86
2021/01/07 07:26:38;;;;;;;14.10;9.10;;;;;;;0.90;94.10;100233.31;4979269;28;20049;-87
2021/01/07 07:29:10;;;;;;;15.02;9.07;;;;;;;1.00;94.43;100239.75;4960848;28;20059;-87
2021/01/07 07:31:40;;;;;;;12.88;8.10;;;;;;;1.14;93.82;100236.34;4978097;28;20054;-86
2021/01/07 07:34:14;;;;;;;14.18;8.43;;;;;;;1.20;92.56;100235.81;4972922;28;20047;-86
2021/01/07 07:36:42;;;;;;;11.95;7.60;;;;;;;1.10;93.81;100239.47;4981781;28;20130;-87
2021/01/07 07:39:10;;;;;;;12.30;7.90;;;;;;;1.02;93.83;100244.13;4980457;28;20150;-88
2021/01/07 07:41:42;;;;;;;11.82;8.25;;;;;;;1.01;93.72;100244.00;4984522;28;20892;-86
2021/01/07 07:44:13;;;;;;;12.63;8.30;;;;;;;1.12;93.06;100255.59;4976938;28;20130;-86
2021/01/07 07:46:40;;;;;;;12.00;8.18;;;;;;;1.17;92.11;100255.84;4975766;28;20128;-85
2021/01/07 07:49:10;;;;;;;15.57;9.40;;;;;;;1.08;92.87;100258.72;4981674;28;20074;-86
2021/01/07 07:51:38;;;;;;;12.30;8.30;;;;;;;1.11;92.56;100258.91;4980555;28;20059;-87
2021/01/07 07:54:08;;;;;;;14.15;8.45;;;;;;;1.17;92.47;100256.69;4976147;28;20105;-87
2021/01/07 07:56:35;;;;;;;12.85;8.07;;;;;;;1.25;92.66;100263.06;4982342;28;20125;-87
2021/01/07 07:59:08;;;;;;;13.88;8.93;;;;;;;1.13;93.75;100271.56;4974939;28;20050;-86
2021/01/07 08:01:47;;;;;;;13.30;8.35;;;;;;;1.10;93.79;100271.38;4969161;28;20109;-88
2021/01/07 08:04:21;;;;;;;13.65;8.45;;;;;;;1.15;93.76;100265.81;4965520;28;20109;-86
2021/01/07 08:06:50;;;;;;;11.90;7.90;;;;;;;1.21;93.55;100280.44;4964161;28;20131;-84
2021/01/07 08:09:23;;;;;;;13.90;8.15;;;;;;;1.07;93.79;100276.28;4974487;28;20047;-85
2021/01/07 08:11:52;;;;;;;14.02;9.15;;;;;;;1.11;93.79;100273.13;4969823;28;20047;-85
2021/01/07 08:14:23;;;;;;;13.35;8.20;;;;;;;1.21;92.85;100280.44;4989222;28;20046;-86
2021/01/07 08:17:01;;;;;;;11.35;7.97;;;;;;;1.26;92.62;100281.56;4968439;28;20153;-86
2021/01/07 08:19:35;;;;;;;13.02;7.72;;;;;;;1.28;92.62;100290.09;4977327;28;20058;-85
2021/01/07 08:22:03;;;;;;;12.00;7.68;;;;;;;1.13;93.36;100284.19;4975342;28;20060;-85
2021/01/07 08:24:31;;;;;;;14.00;8.02;;;;;;;1.25;92.66;100283.22;4993339;28;20049;-86
2021/01/07 08:27:03;;;;;;;16.02;9.27;;;;;;;1.24;92.76;100288.16;4970135;28;20046;-86
2021/01/07 08:29:39;;;;;;;15.38;8.48;;;;;;;1.21;91.78;100276.28;4982290;28;20043;-87
2021/01/07 08:32:10;;;;;;;27.10;14.68;;;;;;;1.04;93.95;100284.53;4983221;28;20050;-86
2021/01/07 08:34:39;;;;;;;22.67;12.07;;;;;;;1.27;92.27;100280.78;4987542;28;20170;-86
2021/01/07 08:37:13;;;;;;;14.07;9.27;;;;;;;1.31;92.37;100282.69;4956638;28;20102;-85
2021/01/07 08:39:41;;;;;;;14.95;9.88;;;;;;;1.15;93.59;100283.47;4985571;28;20047;-86
2021/01/07 08:42:09;;;;;;;21.17;12.60;;;;;;;1.03;93.05;100275.22;4975384;28;20050;-86
2021/01/07 08:44:44;;;;;;;15.48;9.45;;;;;;;1.27;92.64;100281.66;4959410;28;20058;-86
2021/01/07 08:47:24;;;;;;;15.73;10.25;;;;;;;1.27;93.29;100275.75;4984480;28;20066;-85
2021/01/07 08:50:05;;;;;;;12.27;8.23;;;;;;;1.33;92.42;100265.97;4995196;28;20050;-87
2021/01/07 08:52:56;;;;;;;11.48;7.63;;;;;;;1.32;91.58;100276.84;4969671;28;20059;-87
2021/01/07 08:55:51;;;;;;;11.68;7.13;;;;;;;1.32;91.64;100276.84;4977430;28;20133;-86
2021/01/07 08:58:29;;;;;;;10.80;7.28;;;;;;;1.39;92.66;100261.28;4981544;28;20054;-86
2021/01/07 09:00:59;;;;;;;11.38;7.28;;;;;;;1.28;91.97;100278.34;4962553;28;20065;-86
2021/01/07 09:03:36;;;;;;;13.95;9.15;;;;;;;1.43;91.18;100267.34;4967282;28;20050;-86
2021/01/07 09:06:07;;;;;;;11.20;7.45;;;;;;;1.40;91.80;100274.78;4980018;28;20102;-86
2021/01/07 09:08:36;;;;;;;10.30;7.15;;;;;;;1.53;91.19;100272.16;4964225;28;20047;-86
2021/01/07 09:11:26;;;;;;;11.10;7.68;;;;;;;1.38;91.32;100288.94;4982611;28;20821;-85
2021/01/07 09:14:02;;;;;;;10.90;7.03;;;;;;;1.52;91.20;100273.78;4970962;28;20514;-85
2021/01/07 09:16:29;;;;;;;10.75;6.60;;;;;;;1.39;91.18;100278.09;4989758;28;20051;-85
2021/01/07 09:19:25;;;;;;;9.10;6.53;;;;;;;1.61;91.47;100278.44;4985053;28;20169;-85
2021/01/07 09:22:01;;;;;;;8.13;5.47;;;;;;;1.51;89.76;100276.22;4966690;28;20390;-87
2021/01/07 09:24:49;;;;;;;9.50;6.32;;;;;;;1.58;90.93;100273.25;4972493;28;20608;-86
2021/01/07 09:27:22;;;;;;;10.60;6.88;;;;;;;1.33;91.25;100278.59;4966599;28;20050;-86
2021/01/07 09:29:49;;;;;;;8.63;5.90;;;;;;;1.59;90.38;100279.19;4957986;28;20498;-86
2021/01/07 09:32:19;;;;;;;9.95;6.53;;;;;;;1.47;91.03;100284.41;4971931;28;20054;-85
2021/01/07 09:34:47;;;;;;;8.40;6.03;;;;;;;1.66;90.63;100276.19;4961525;28;20055;-86
2021/01/07 09:37:15;;;;;;;10.07;6.47;;;;;;;1.65;90.60;100279.50;4963946;28;20880;-86
2021/01/07 09:39:45;;;;;;;9.48;6.72;;;;;;;1.55;91.14;100280.66;4953355;28;20483;-88
2021/01/07 09:42:28;;;;;;;9.35;7.78;;;;;;;1.43;91.59;100283.38;4961726;28;20066;-88
2021/01/07 09:44:56;;;;;;;9.95;6.28;;;;;;;1.55;90.92;100280.66;4983341;23;20125;-48
2021/01/07 09:47:23;;;;;;;7.90;6.28;;;;;;;1.65;90.82;100287.06;4969716;28;20051;-46
2021/01/07 09:49:51;;;;;;;9.85;6.07;;;;;;;1.69;89.97;100282.28;4961638;28;20050;-43
2021/01/07 09:52:19;;;;;;;8.68;6.07;;;;;;;1.78;89.40;100282.78;4960627;28;20130;-46
2021/01/07 09:54:49;;;;;;;8.70;6.03;;;;;;;1.77;89.42;100276.00;4964399;28;20128;-43
2021/01/07 09:57:21;;;;;;;9.05;6.28;;;;;;;1.81;89.85;100281.22;4957170;28;20050;-48
2021/01/07 09:59:57;;;;;;;9.07;6.57;;;;;;;1.59;90.81;100275.00;5030081;22;20058;-89
2021/01/07 10:02:26;;;;;;;8.77;6.03;;;;;;;1.75;89.94;100279.19;4973266;28;20039;-91
2021/01/07 10:04:55;;;;;;;8.25;6.05;;;;;;;1.72;89.70;100277.41;4978315;28;20053;-89
2021/01/07 10:07:22;;;;;;;8.40;6.38;;;;;;;1.57;89.80;100274.03;4985098;28;20050;-86
2021/01/07 10:10:06;;;;;;;8.00;5.45;;;;;;;1.78;89.00;100267.63;4970167;28;20054;-88
2021/01/07 10:12:47;;;;;;;8.55;6.50;;;;;;;1.56;89.61;100276.47;4977554;28;20046;-88
2021/01/07 10:15:18;;;;;;;8.75;6.32;;;;;;;1.52;91.78;100275.44;4979372;28;20047;-87
2021/01/07 10:17:57;;;;;;;8.93;5.93;;;;;;;1.67;89.04;100271.25;4990149;28;20106;-88
2021/01/07 10:20:28;;;;;;;9.75;6.53;;;;;;;1.66;90.77;100263.56;4979148;28;20051;-87
2021/01/07 10:23:00;;;;;;;7.93;6.07;;;;;;;1.85;89.50;100271.38;4957835;28;20054;-87
2021/01/07 10:25:27;;;;;;;8.93;6.63;;;;;;;1.94;89.48;100269.34;4980427;28;20071;-88
2021/01/07 10:27:57;;;;;;;7.63;5.78;;;;;;;1.93;88.29;100266.69;4986592;28;20134;-88
2021/01/07 10:30:32;;;;;;;8.30;6.32;;;;;;;1.70;89.28;100256.25;4969089;28;20043;-89
2021/01/07 10:33:23;;;;;;;10.20;7.32;;;;;;;2.04;89.10;100263.09;4963390;28;20062;-88
2021/01/07 10:36:05;;;;;;;6.43;5.40;;;;;;;1.89;88.54;100263.13;4984983;28;20051;-89
2021/01/07 10:38:50;;;;;;;7.38;5.53;;;;;;;1.90;88.17;100264.91;4961008;28;20046;-88
2021/01/07 10:41:30;;;;;;;6.68;4.78;;;;;;;2.05;87.47;100259.78;4980843;28;20046;-87
2021/01/07 10:44:07;;;;;;;7.63;5.93;;;;;;;1.82;89.18;100262.75;4974970;28;20054;-87
2021/01/07 10:46:46;;;;;;;7.78;5.72;;;;;;;2.11;87.57;100257.56;4977415;28;20436;-87
2021/01/07 10:49:38;;;;;;;8.38;5.70;;;;;;;1.80;88.19;100262.66;4989090;28;20054;-89
2021/01/07 10:52:17;;;;;;;7.10;5.88;;;;;;;2.00;87.38;100268.78;4980971;28;20610;-89
2021/01/07 10:55:11;;;;;;;6.80;5.90;;;;;;;1.95;87.50;100260.09;4968129;28;20053;-88
2021/01/07 10:57:51;;;;;;;7.55;5.93;;;;;;;2.00;87.88;100264.59;4980855;28;20043;-89
2021/01/07 11:00:51;;;;;;;8.38;6.15;;;;;;;2.10;87.69;100257.50;4966015;28;20050;-89
2021/01/07 11:03:30;;;;;;;6.75;5.57;;;;;;;1.97;88.24;100264.41;4984603;28;20215;-89
2021/01/07 11:06:07;;;;;;;6.78;5.85;;;;;;;1.89;87.57;100268.19;4970829;28;20066;-89
2021/01/07 11:08:41;;;;;;;6.97;5.70;;;;;;;2.11;86.77;100260.09;4960956;28;20063;-89
2021/01/07 11:11:23;;;;;;;6.82;6.07;;;;;;;2.02;87.53;100257.09;4976601;28;20684;-90
2021/01/07 11:14:07;;;;;;;7.50;5.88;;;;;;;2.10;88.13;100260.03;4977313;28;20070;-90
2021/01/07 11:16:47;;;;;;;8.15;5.97;;;;;;;2.18;86.64;100244.50;4979338;28;20050;-89
2021/01/07 11:19:19;;;;;;;8.23;6.55;;;;;;;1.83;88.19;100250.19;4989358;28;20503;-90
2021/01/07 11:22:00;;;;;;;8.65;6.25;;;;;;;1.95;89.34;100244.94;4987129;28;20137;-90
2021/01/07 11:24:27;;;;;;;6.38;5.45;;;;;;;2.06;88.40;100246.38;4953587;28;20058;-89
2021/01/07 11:26:55;;;;;;;6.57;5.70;;;;;;;1.93;87.14;100242.31;4991512;28;20050;-89
2021/01/07 11:29:30;;;;;;;7.18;5.90;;;;;;;1.77;88.58;100244.84;4997276;28;20599;-89
2021/01/07 11:31:58;;;;;;;6.32;5.07;;;;;;;1.92;87.23;100235.53;4971497;28;20100;-89
2021/01/07 11:34:28;;;;;;;6.53;5.38;;;;;;;1.87;88.91;100231.03;4968497;28;20055;-91
2021/01/07 11:37:13;;;;;;;6.35;5.13;;;;;;;2.25;86.75;100236.41;4982855;28;20542;-89
2021/01/07 11:39:58;;;;;;;5.85;4.43;;;;;;;2.12;86.32;100234.03;4981858;28;20046;-89
2021/01/07 11:42:48;;;;;;;6.47;4.95;;;;;;;1.69;89.38;100234.31;4972995;28;20059;-89
2021/01/07 11:45:17;;;;;;;5.85;4.93;;;;;;;1.88;87.89;100233.63;4971044;28;20140;-88